sensor_id;sensor_type;location;lat;lon;timestamp;P1;durP1;ratioP1;P2;durP2;ratioP2
1691;SDS011;843;52.054;8.552;2023-05-10T00:01:04;8.77;;;8.03;;
1691;SDS011;843;52.054;8.552;2023-05-10T00:03:30;9.40;;;8.30;;
1691;SDS011;843;52.054;8.552;2023-05-10T00:05:57;7.97;;;7.17;;
1691;SDS011;843;52.054;8.552;2023-05-10T00:08:24;9.53;;;8.33;;
1691;SDS011;843;52.054;8.552;2023-05-10T00:10:51;8.63;;;7.70;;
1691;SDS011;843;52.054;8.552;2023-05-10T00:13:17;8.23;;;7.43;;
1691;SDS011;843;52.054;8.552;2023-05-10T00:15:44;9.67;;;8.67;;
1691;SDS011;843;52.054;8.552;2023-05-10T00:18:10;10.00;;;8.20;;
1691;SDS011;843;52.054;8.552;2023-05-10T00:20:37;9.00;;;8.20;;
1691;SDS011;843;52.054;8.552;2023-05-10T00:23:03;9.47;;;8.67;;
1691;SDS011;843;52.054;8.552;2023-05-10T00:25:31;9.47;;;8.67;;
1691;SDS011;843;52.054;8.552;2023-05-10T00:27:57;11.67;;;10.47;;
1691;SDS011;843;52.054;8.552;2023-05-10T00:30:26;11.50;;;10.30;;
1691;SDS011;843;52.054;8.552;2023-05-10T00:32:52;10.67;;;9.57;;
1691;SDS011;843;52.054;8.552;2023-05-10T00:35:19;12.03;;;10.83;;
1691;SDS011;843;52.054;8.552;2023-05-10T00:37:46;12.17;;;10.97;;
1691;SDS011;843;52.054;8.552;2023-05-10T00:40:13;11.93;;;10.37;;
1691;SDS011;843;52.054;8.552;2023-05-10T00:42:41;12.63;;;9.97;;
1691;SDS011;843;52.054;8.552;2023-05-10T00:45:07;12.23;;;10.70;;
1691;SDS011;843;52.054;8.552;2023-05-10T00:47:34;11.37;;;10.27;;
1691;SDS011;843;52.054;8.552;2023-05-10T00:50:00;12.00;;;10.30;;
1691;SDS011;843;52.054;8.552;2023-05-10T00:52:27;11.67;;;10.47;;
1691;SDS011;843;52.054;8.552;2023-05-10T00:54:54;12.70;;;11.43;;
1691;SDS011;843;52.054;8.552;2023-05-10T00:57:20;14.40;;;12.13;;
1691;SDS011;843;52.054;8.552;2023-05-10T00:59:48;13.23;;;11.93;;
1691;SDS011;843;52.054;8.552;2023-05-10T01:02:15;13.43;;;11.93;;
1691;SDS011;843;52.054;8.552;2023-05-10T01:04:41;15.43;;;11.70;;
1691;SDS011;843;52.054;8.552;2023-05-10T01:07:09;13.50;;;11.77;;
1691;SDS011;843;52.054;8.552;2023-05-10T01:09:35;13.40;;;12.00;;
1691;SDS011;843;52.054;8.552;2023-05-10T01:12:02;12.70;;;11.40;;
1691;SDS011;843;52.054;8.552;2023-05-10T01:14:31;13.30;;;11.93;;
1691;SDS011;843;52.054;8.552;2023-05-10T01:16:59;14.70;;;11.73;;
1691;SDS011;843;52.054;8.552;2023-05-10T01:19:26;13.77;;;12.40;;
1691;SDS011;843;52.054;8.552;2023-05-10T01:21:56;14.10;;;12.03;;
1691;SDS011;843;52.054;8.552;2023-05-10T01:24:33;14.20;;;12.70;;
1691;SDS011;843;52.054;8.552;2023-05-10T01:32:41;13.83;;;12.43;;
1691;SDS011;843;52.054;8.552;2023-05-10T01:35:10;13.17;;;11.77;;
1691;SDS011;843;52.054;8.552;2023-05-10T01:37:41;16.60;;;13.60;;
1691;SDS011;843;52.054;8.552;2023-05-10T01:40:10;14.40;;;12.90;;
1691;SDS011;843;52.054;8.552;2023-05-10T01:42:40;15.53;;;13.93;;
1691;SDS011;843;52.054;8.552;2023-05-10T01:45:11;18.40;;;14.67;;
1691;SDS011;843;52.054;8.552;2023-05-10T01:47:42;16.20;;;13.20;;
1691;SDS011;843;52.054;8.552;2023-05-10T01:50:09;14.10;;;12.43;;
1691;SDS011;843;52.054;8.552;2023-05-10T01:52:37;14.83;;;13.23;;
1691;SDS011;843;52.054;8.552;2023-05-10T01:55:05;16.20;;;13.13;;
1691;SDS011;843;52.054;8.552;2023-05-10T01:57:33;14.33;;;11.40;;
1691;SDS011;843;52.054;8.552;2023-05-10T02:00:00;15.10;;;12.47;;
1691;SDS011;843;52.054;8.552;2023-05-10T02:02:27;11.57;;;9.17;;
1691;SDS011;843;52.054;8.552;2023-05-10T02:04:56;12.87;;;11.47;;
1691;SDS011;843;52.054;8.552;2023-05-10T02:07:24;11.03;;;9.90;;
1691;SDS011;843;52.054;8.552;2023-05-10T02:09:50;10.20;;;9.10;;
1691;SDS011;843;52.054;8.552;2023-05-10T02:12:17;10.40;;;9.17;;
1691;SDS011;843;52.054;8.552;2023-05-10T02:14:44;9.17;;;8.17;;
1691;SDS011;843;52.054;8.552;2023-05-10T02:17:11;10.50;;;9.13;;
1691;SDS011;843;52.054;8.552;2023-05-10T02:19:38;7.67;;;6.90;;
1691;SDS011;843;52.054;8.552;2023-05-10T02:22:06;8.10;;;6.50;;
1691;SDS011;843;52.054;8.552;2023-05-10T02:24:34;7.33;;;6.50;;
1691;SDS011;843;52.054;8.552;2023-05-10T02:27:01;6.40;;;5.80;;
1691;SDS011;843;52.054;8.552;2023-05-10T02:29:28;6.87;;;5.80;;
1691;SDS011;843;52.054;8.552;2023-05-10T02:31:55;5.80;;;5.17;;
1691;SDS011;843;52.054;8.552;2023-05-10T02:34:22;5.87;;;5.37;;
1691;SDS011;843;52.054;8.552;2023-05-10T02:36:49;5.33;;;4.83;;
1691;SDS011;843;52.054;8.552;2023-05-10T02:39:18;5.60;;;4.43;;
1691;SDS011;843;52.054;8.552;2023-05-10T02:41:45;5.30;;;4.57;;
1691;SDS011;843;52.054;8.552;2023-05-10T02:44:12;4.67;;;4.27;;
1691;SDS011;843;52.054;8.552;2023-05-10T02:46:40;5.00;;;4.60;;
1691;SDS011;843;52.054;8.552;2023-05-10T02:49:06;6.80;;;5.20;;
1691;SDS011;843;52.054;8.552;2023-05-10T02:51:34;5.73;;;4.87;;
1691;SDS011;843;52.054;8.552;2023-05-10T02:54:04;6.53;;;5.93;;
1691;SDS011;843;52.054;8.552;2023-05-10T02:56:34;6.40;;;5.80;;
1691;SDS011;843;52.054;8.552;2023-05-10T02:59:01;8.13;;;7.33;;
1691;SDS011;843;52.054;8.552;2023-05-10T03:01:28;8.17;;;7.37;;
1691;SDS011;843;52.054;8.552;2023-05-10T03:03:55;8.50;;;7.70;;
1691;SDS011;843;52.054;8.552;2023-05-10T03:06:21;9.67;;;8.07;;
1691;SDS011;843;52.054;8.552;2023-05-10T03:08:48;10.07;;;8.10;;
1691;SDS011;843;52.054;8.552;2023-05-10T03:11:23;9.20;;;8.30;;
1691;SDS011;843;52.054;8.552;2023-05-10T03:13:56;9.10;;;8.13;;
1691;SDS011;843;52.054;8.552;2023-05-10T03:16:29;9.43;;;8.43;;
1691;SDS011;843;52.054;8.552;2023-05-10T03:19:01;12.07;;;8.57;;
1691;SDS011;843;52.054;8.552;2023-05-10T03:21:28;12.27;;;10.47;;
1691;SDS011;843;52.054;8.552;2023-05-10T03:23:58;12.33;;;11.03;;
1691;SDS011;843;52.054;8.552;2023-05-10T03:26:25;12.90;;;11.60;;
1691;SDS011;843;52.054;8.552;2023-05-10T03:28:52;13.90;;;11.97;;
1691;SDS011;843;52.054;8.552;2023-05-10T03:31:20;12.60;;;10.47;;
1691;SDS011;843;52.054;8.552;2023-05-10T03:33:47;10.97;;;9.73;;
1691;SDS011;843;52.054;8.552;2023-05-10T03:36:14;11.17;;;9.70;;
1691;SDS011;843;52.054;8.552;2023-05-10T03:38:40;9.63;;;8.63;;
1691;SDS011;843;52.054;8.552;2023-05-10T03:41:06;9.83;;;8.70;;
1691;SDS011;843;52.054;8.552;2023-05-10T03:43:33;12.77;;;10.00;;
1691;SDS011;843;52.054;8.552;2023-05-10T03:46:01;9.37;;;7.73;;
1691;SDS011;843;52.054;8.552;2023-05-10T03:48:28;9.43;;;8.20;;
1691;SDS011;843;52.054;8.552;2023-05-10T03:50:55;8.17;;;7.27;;
1691;SDS011;843;52.054;8.552;2023-05-10T03:53:21;8.10;;;6.60;;
1691;SDS011;843;52.054;8.552;2023-05-10T03:55:48;7.00;;;6.30;;
1691;SDS011;843;52.054;8.552;2023-05-10T03:58:14;8.77;;;6.00;;
1691;SDS011;843;52.054;8.552;2023-05-10T04:00:41;6.73;;;6.10;;
1691;SDS011;843;52.054;8.552;2023-05-10T04:03:10;6.00;;;5.40;;
1691;SDS011;843;52.054;8.552;2023-05-10T04:05:38;5.40;;;4.90;;
1691;SDS011;843;52.054;8.552;2023-05-10T04:08:04;6.13;;;5.53;;
1691;SDS011;843;52.054;8.552;2023-05-10T04:10:31;7.20;;;6.13;;
1691;SDS011;843;52.054;8.552;2023-05-10T04:12:57;7.27;;;4.90;;
1691;SDS011;843;52.054;8.552;2023-05-10T04:15:24;5.30;;;4.80;;
1691;SDS011;843;52.054;8.552;2023-05-10T04:17:50;5.43;;;4.10;;
1691;SDS011;843;52.054;8.552;2023-05-10T04:20:16;4.33;;;3.90;;
1691;SDS011;843;52.054;8.552;2023-05-10T04:22:44;3.73;;;3.33;;
1691;SDS011;843;52.054;8.552;2023-05-10T04:25:11;2.90;;;2.70;;
1691;SDS011;843;52.054;8.552;2023-05-10T04:27:37;2.60;;;2.40;;
1691;SDS011;843;52.054;8.552;2023-05-10T04:30:04;3.27;;;2.40;;
1691;SDS011;843;52.054;8.552;2023-05-10T04:32:31;3.50;;;2.37;;
1691;SDS011;843;52.054;8.552;2023-05-10T04:34:57;2.60;;;2.40;;
1691;SDS011;843;52.054;8.552;2023-05-10T04:37:23;2.47;;;2.27;;
1691;SDS011;843;52.054;8.552;2023-05-10T04:39:51;2.33;;;2.13;;
1691;SDS011;843;52.054;8.552;2023-05-10T04:42:18;2.90;;;2.10;;
1691;SDS011;843;52.054;8.552;2023-05-10T04:44:44;3.67;;;1.60;;
1691;SDS011;843;52.054;8.552;2023-05-10T04:47:10;1.70;;;1.60;;
1691;SDS011;843;52.054;8.552;2023-05-10T04:49:38;1.53;;;1.40;;
1691;SDS011;843;52.054;8.552;2023-05-10T04:52:04;1.57;;;1.40;;
1691;SDS011;843;52.054;8.552;2023-05-10T04:54:31;1.60;;;1.50;;
1691;SDS011;843;52.054;8.552;2023-05-10T04:56:59;2.00;;;1.80;;
1691;SDS011;843;52.054;8.552;2023-05-10T04:59:25;2.33;;;1.80;;
1691;SDS011;843;52.054;8.552;2023-05-10T05:01:51;2.17;;;1.97;;
1691;SDS011;843;52.054;8.552;2023-05-10T05:04:18;6.23;;;2.20;;
1691;SDS011;843;52.054;8.552;2023-05-10T05:06:44;2.37;;;1.83;;
1691;SDS011;843;52.054;8.552;2023-05-10T05:09:11;1.83;;;1.73;;
1691;SDS011;843;52.054;8.552;2023-05-10T05:11:37;3.53;;;2.60;;
1691;SDS011;843;52.054;8.552;2023-05-10T05:14:07;5.03;;;2.70;;
1691;SDS011;843;52.054;8.552;2023-05-10T05:16:33;4.40;;;3.00;;
1691;SDS011;843;52.054;8.552;2023-05-10T05:19:00;3.40;;;3.10;;
1691;SDS011;843;52.054;8.552;2023-05-10T05:21:26;4.10;;;3.23;;
1691;SDS011;843;52.054;8.552;2023-05-10T05:23:53;3.60;;;3.30;;
1691;SDS011;843;52.054;8.552;2023-05-10T05:26:20;4.50;;;4.10;;
1691;SDS011;843;52.054;8.552;2023-05-10T05:28:46;3.90;;;3.60;;
1691;SDS011;843;52.054;8.552;2023-05-10T05:31:15;4.20;;;3.90;;
1691;SDS011;843;52.054;8.552;2023-05-10T05:33:41;4.70;;;4.30;;
1691;SDS011;843;52.054;8.552;2023-05-10T05:36:08;4.40;;;4.00;;
1691;SDS011;843;52.054;8.552;2023-05-10T05:38:34;5.37;;;4.87;;
1691;SDS011;843;52.054;8.552;2023-05-10T05:41:01;4.03;;;3.67;;
1691;SDS011;843;52.054;8.552;2023-05-10T05:43:28;5.30;;;4.80;;
1691;SDS011;843;52.054;8.552;2023-05-10T05:45:54;5.00;;;4.60;;
1691;SDS011;843;52.054;8.552;2023-05-10T05:48:24;4.80;;;4.40;;
1691;SDS011;843;52.054;8.552;2023-05-10T05:50:53;5.23;;;3.97;;
1691;SDS011;843;52.054;8.552;2023-05-10T05:53:20;5.63;;;5.13;;
1691;SDS011;843;52.054;8.552;2023-05-10T05:55:52;4.80;;;4.40;;
1691;SDS011;843;52.054;8.552;2023-05-10T05:58:20;4.67;;;4.17;;
1691;SDS011;843;52.054;8.552;2023-05-10T06:00:46;5.40;;;4.73;;
1691;SDS011;843;52.054;8.552;2023-05-10T06:03:13;4.20;;;3.80;;
1691;SDS011;843;52.054;8.552;2023-05-10T06:05:40;4.97;;;4.50;;
1691;SDS011;843;52.054;8.552;2023-05-10T06:08:07;4.63;;;4.20;;
1691;SDS011;843;52.054;8.552;2023-05-10T06:10:33;4.77;;;4.37;;
1691;SDS011;843;52.054;8.552;2023-05-10T06:13:00;8.50;;;5.10;;
1691;SDS011;843;52.054;8.552;2023-05-10T06:15:26;4.70;;;4.30;;
1691;SDS011;843;52.054;8.552;2023-05-10T06:17:53;5.10;;;4.43;;
1691;SDS011;843;52.054;8.552;2023-05-10T06:20:19;4.80;;;4.20;;
1691;SDS011;843;52.054;8.552;2023-05-10T06:22:47;4.60;;;4.20;;
1691;SDS011;843;52.054;8.552;2023-05-10T06:25:13;3.90;;;3.50;;
1691;SDS011;843;52.054;8.552;2023-05-10T06:27:42;5.93;;;4.03;;
1691;SDS011;843;52.054;8.552;2023-05-10T06:30:09;4.53;;;4.13;;
1691;SDS011;843;52.054;8.552;2023-05-10T06:32:38;4.43;;;4.03;;
1691;SDS011;843;52.054;8.552;2023-05-10T06:35:05;4.40;;;3.87;;
1691;SDS011;843;52.054;8.552;2023-05-10T06:37:31;5.17;;;4.67;;
1691;SDS011;843;52.054;8.552;2023-05-10T06:39:59;5.50;;;4.83;;
1691;SDS011;843;52.054;8.552;2023-05-10T06:42:26;6.03;;;4.30;;
1691;SDS011;843;52.054;8.552;2023-05-10T06:44:53;10.10;;;5.00;;
1691;SDS011;843;52.054;8.552;2023-05-10T06:47:19;4.77;;;4.37;;
1691;SDS011;843;52.054;8.552;2023-05-10T06:49:47;5.27;;;4.20;;
1691;SDS011;843;52.054;8.552;2023-05-10T06:52:13;5.63;;;5.13;;
1691;SDS011;843;52.054;8.552;2023-05-10T06:54:40;4.00;;;3.70;;
1691;SDS011;843;52.054;8.552;2023-05-10T06:57:07;4.43;;;4.03;;
1691;SDS011;843;52.054;8.552;2023-05-10T06:59:34;6.13;;;4.23;;
1691;SDS011;843;52.054;8.552;2023-05-10T07:02:01;4.20;;;3.47;;
1691;SDS011;843;52.054;8.552;2023-05-10T07:04:28;7.80;;;3.97;;
1691;SDS011;843;52.054;8.552;2023-05-10T07:06:54;4.87;;;4.30;;
1691;SDS011;843;52.054;8.552;2023-05-10T07:09:22;4.70;;;4.20;;
1691;SDS011;843;52.054;8.552;2023-05-10T07:11:49;4.80;;;3.93;;
1691;SDS011;843;52.054;8.552;2023-05-10T07:14:17;5.70;;;4.43;;
1691;SDS011;843;52.054;8.552;2023-05-10T07:16:43;4.37;;;3.87;;
1691;SDS011;843;52.054;8.552;2023-05-10T07:19:10;5.83;;;4.13;;
1691;SDS011;843;52.054;8.552;2023-05-10T07:21:36;6.23;;;4.53;;
1691;SDS011;843;52.054;8.552;2023-05-10T07:24:05;4.87;;;4.37;;
1691;SDS011;843;52.054;8.552;2023-05-10T07:26:31;6.07;;;4.13;;
1691;SDS011;843;52.054;8.552;2023-05-10T07:28:58;5.50;;;5.00;;
1691;SDS011;843;52.054;8.552;2023-05-10T07:31:26;6.07;;;4.90;;
1691;SDS011;843;52.054;8.552;2023-05-10T07:33:52;5.90;;;5.30;;
1691;SDS011;843;52.054;8.552;2023-05-10T07:36:19;6.67;;;5.30;;
1691;SDS011;843;52.054;8.552;2023-05-10T07:38:45;7.90;;;5.90;;
1691;SDS011;843;52.054;8.552;2023-05-10T07:41:12;6.50;;;5.90;;
1691;SDS011;843;52.054;8.552;2023-05-10T07:43:38;9.27;;;6.77;;
1691;SDS011;843;52.054;8.552;2023-05-10T07:46:05;9.37;;;7.17;;
1691;SDS011;843;52.054;8.552;2023-05-10T07:48:33;9.53;;;6.20;;
1691;SDS011;843;52.054;8.552;2023-05-10T07:50:59;11.03;;;8.00;;
1691;SDS011;843;52.054;8.552;2023-05-10T07:53:26;8.97;;;7.30;;
1691;SDS011;843;52.054;8.552;2023-05-10T07:55:54;10.07;;;8.17;;
1691;SDS011;843;52.054;8.552;2023-05-10T07:58:20;14.23;;;8.90;;
1691;SDS011;843;52.054;8.552;2023-05-10T08:00:47;11.20;;;8.43;;
1691;SDS011;843;52.054;8.552;2023-05-10T08:03:14;11.70;;;9.43;;
1691;SDS011;843;52.054;8.552;2023-05-10T08:05:42;14.87;;;9.43;;
1691;SDS011;843;52.054;8.552;2023-05-10T08:08:08;15.93;;;10.17;;
1691;SDS011;843;52.054;8.552;2023-05-10T08:10:35;13.57;;;10.30;;
1691;SDS011;843;52.054;8.552;2023-05-10T08:13:01;11.30;;;10.10;;
1691;SDS011;843;52.054;8.552;2023-05-10T08:15:28;13.53;;;11.30;;
1691;SDS011;843;52.054;8.552;2023-05-10T08:17:54;15.40;;;11.73;;
1691;SDS011;843;52.054;8.552;2023-05-10T08:20:21;16.07;;;13.00;;
1691;SDS011;843;52.054;8.552;2023-05-10T08:22:49;17.43;;;11.20;;
1691;SDS011;843;52.054;8.552;2023-05-10T08:25:16;17.37;;;11.53;;
1691;SDS011;843;52.054;8.552;2023-05-10T08:27:42;18.00;;;12.80;;
1691;SDS011;843;52.054;8.552;2023-05-10T08:30:09;14.33;;;11.70;;
1691;SDS011;843;52.054;8.552;2023-05-10T08:32:35;15.33;;;12.33;;
1691;SDS011;843;52.054;8.552;2023-05-10T08:35:03;17.57;;;13.00;;
1691;SDS011;843;52.054;8.552;2023-05-10T08:37:30;16.77;;;12.43;;
1691;SDS011;843;52.054;8.552;2023-05-10T08:39:58;18.40;;;13.27;;
1691;SDS011;843;52.054;8.552;2023-05-10T08:42:25;16.53;;;13.50;;
1691;SDS011;843;52.054;8.552;2023-05-10T08:44:54;20.00;;;12.97;;
1691;SDS011;843;52.054;8.552;2023-05-10T08:47:22;16.10;;;12.37;;
1691;SDS011;843;52.054;8.552;2023-05-10T08:49:48;16.40;;;12.20;;
1691;SDS011;843;52.054;8.552;2023-05-10T08:52:16;18.10;;;11.60;;
1691;SDS011;843;52.054;8.552;2023-05-10T08:54:43;14.60;;;11.50;;
1691;SDS011;843;52.054;8.552;2023-05-10T08:57:11;16.43;;;12.70;;
1691;SDS011;843;52.054;8.552;2023-05-10T08:59:38;15.00;;;11.10;;
1691;SDS011;843;52.054;8.552;2023-05-10T09:02:05;15.97;;;11.80;;
1691;SDS011;843;52.054;8.552;2023-05-10T09:04:31;14.70;;;12.50;;
1691;SDS011;843;52.054;8.552;2023-05-10T09:06:58;16.70;;;11.70;;
1691;SDS011;843;52.054;8.552;2023-05-10T09:09:26;14.07;;;11.27;;
1691;SDS011;843;52.054;8.552;2023-05-10T09:11:53;18.50;;;12.20;;
1691;SDS011;843;52.054;8.552;2023-05-10T09:14:21;15.30;;;12.03;;
1691;SDS011;843;52.054;8.552;2023-05-10T09:16:49;17.13;;;12.33;;
1691;SDS011;843;52.054;8.552;2023-05-10T09:19:16;12.17;;;9.83;;
1691;SDS011;843;52.054;8.552;2023-05-10T09:21:42;14.70;;;10.90;;
1691;SDS011;843;52.054;8.552;2023-05-10T09:24:09;16.23;;;11.80;;
1691;SDS011;843;52.054;8.552;2023-05-10T09:26:35;13.90;;;11.17;;
1691;SDS011;843;52.054;8.552;2023-05-10T09:29:11;15.17;;;11.63;;
1691;SDS011;843;52.054;8.552;2023-05-10T09:31:47;16.77;;;12.33;;
1691;SDS011;843;52.054;8.552;2023-05-10T09:34:16;18.27;;;13.20;;
1691;SDS011;843;52.054;8.552;2023-05-10T09:36:56;19.10;;;13.20;;
1691;SDS011;843;52.054;8.552;2023-05-10T09:39:29;19.03;;;14.20;;
1691;SDS011;843;52.054;8.552;2023-05-10T09:41:56;17.03;;;13.87;;
1691;SDS011;843;52.054;8.552;2023-05-10T09:44:24;19.33;;;14.33;;
1691;SDS011;843;52.054;8.552;2023-05-10T09:46:52;20.50;;;15.17;;
1691;SDS011;843;52.054;8.552;2023-05-10T09:49:19;19.17;;;14.03;;
1691;SDS011;843;52.054;8.552;2023-05-10T09:51:46;16.57;;;12.57;;
1691;SDS011;843;52.054;8.552;2023-05-10T09:54:13;20.70;;;15.30;;
1691;SDS011;843;52.054;8.552;2023-05-10T09:56:40;20.67;;;15.93;;
1691;SDS011;843;52.054;8.552;2023-05-10T09:59:07;17.80;;;14.47;;
1691;SDS011;843;52.054;8.552;2023-05-10T10:01:33;17.80;;;14.00;;
1691;SDS011;843;52.054;8.552;2023-05-10T10:04:03;15.97;;;12.50;;
1691;SDS011;843;52.054;8.552;2023-05-10T10:06:34;15.00;;;13.20;;
1691;SDS011;843;52.054;8.552;2023-05-10T10:09:01;17.10;;;12.27;;
1691;SDS011;843;52.054;8.552;2023-05-10T10:11:28;13.70;;;11.10;;
1691;SDS011;843;52.054;8.552;2023-05-10T10:13:54;13.90;;;12.50;;
1691;SDS011;843;52.054;8.552;2023-05-10T10:16:21;13.87;;;12.47;;
1691;SDS011;843;52.054;8.552;2023-05-10T10:18:48;15.47;;;11.60;;
1691;SDS011;843;52.054;8.552;2023-05-10T10:21:16;13.33;;;11.93;;
1691;SDS011;843;52.054;8.552;2023-05-10T10:23:42;10.80;;;9.53;;
1691;SDS011;843;52.054;8.552;2023-05-10T10:26:09;12.10;;;10.50;;
1691;SDS011;843;52.054;8.552;2023-05-10T10:28:39;15.10;;;11.70;;
1691;SDS011;843;52.054;8.552;2023-05-10T10:31:12;14.00;;;10.77;;
1691;SDS011;843;52.054;8.552;2023-05-10T10:33:41;14.47;;;12.60;;
1691;SDS011;843;52.054;8.552;2023-05-10T10:36:14;12.53;;;10.17;;
1691;SDS011;843;52.054;8.552;2023-05-10T10:39:08;17.93;;;11.40;;
1691;SDS011;843;52.054;8.552;2023-05-10T10:41:35;13.33;;;10.73;;
1691;SDS011;843;52.054;8.552;2023-05-10T10:47:01;9.93;;;8.93;;
1691;SDS011;843;52.054;8.552;2023-05-10T10:49:30;9.73;;;7.97;;
1691;SDS011;843;52.054;8.552;2023-05-10T10:54:51;10.97;;;7.97;;
1691;SDS011;843;52.054;8.552;2023-05-10T10:57:18;10.10;;;8.57;;
1691;SDS011;843;52.054;8.552;2023-05-10T10:59:46;9.90;;;8.90;;
1691;SDS011;843;52.054;8.552;2023-05-10T11:04:54;9.70;;;8.07;;
1691;SDS011;843;52.054;8.552;2023-05-10T11:07:21;8.80;;;7.40;;
1691;SDS011;843;52.054;8.552;2023-05-10T11:09:48;9.40;;;7.47;;
1691;SDS011;843;52.054;8.552;2023-05-10T11:12:16;9.00;;;6.70;;
1691;SDS011;843;52.054;8.552;2023-05-10T11:14:42;11.00;;;7.27;;
1691;SDS011;843;52.054;8.552;2023-05-10T11:17:24;7.77;;;6.97;;
1691;SDS011;843;52.054;8.552;2023-05-10T11:20:06;6.00;;;5.40;;
1691;SDS011;843;52.054;8.552;2023-05-10T11:22:48;7.53;;;5.70;;
1691;SDS011;843;52.054;8.552;2023-05-10T11:25:15;7.80;;;6.70;;
1691;SDS011;843;52.054;8.552;2023-05-10T11:27:43;9.43;;;6.63;;
1691;SDS011;843;52.054;8.552;2023-05-10T11:30:10;8.80;;;7.43;;
1691;SDS011;843;52.054;8.552;2023-05-10T11:32:36;9.30;;;7.20;;
1691;SDS011;843;52.054;8.552;2023-05-10T11:35:06;9.37;;;6.73;;
1691;SDS011;843;52.054;8.552;2023-05-10T11:37:33;9.70;;;5.60;;
1691;SDS011;843;52.054;8.552;2023-05-10T11:39:59;8.63;;;6.20;;
1691;SDS011;843;52.054;8.552;2023-05-10T11:42:27;9.83;;;6.30;;
1691;SDS011;843;52.054;8.552;2023-05-10T11:44:55;7.83;;;6.73;;
1691;SDS011;843;52.054;8.552;2023-05-10T11:47:21;9.60;;;6.77;;
1691;SDS011;843;52.054;8.552;2023-05-10T11:49:48;8.77;;;6.43;;
1691;SDS011;843;52.054;8.552;2023-05-10T11:52:15;7.87;;;6.23;;
1691;SDS011;843;52.054;8.552;2023-05-10T11:54:44;6.87;;;6.17;;
1691;SDS011;843;52.054;8.552;2023-05-10T11:57:11;8.13;;;6.03;;
1691;SDS011;843;52.054;8.552;2023-05-10T11:59:38;8.27;;;5.73;;
1691;SDS011;843;52.054;8.552;2023-05-10T12:02:06;9.50;;;6.27;;
1691;SDS011;843;52.054;8.552;2023-05-10T12:04:33;8.03;;;5.93;;
1691;SDS011;843;52.054;8.552;2023-05-10T12:07:00;11.20;;;7.67;;
1691;SDS011;843;52.054;8.552;2023-05-10T12:09:26;10.07;;;6.70;;
1691;SDS011;843;52.054;8.552;2023-05-10T12:11:54;9.63;;;7.17;;
1691;SDS011;843;52.054;8.552;2023-05-10T12:14:21;8.23;;;7.10;;
1691;SDS011;843;52.054;8.552;2023-05-10T12:16:49;11.50;;;7.20;;
1691;SDS011;843;52.054;8.552;2023-05-10T12:19:19;10.63;;;6.57;;
1691;SDS011;843;52.054;8.552;2023-05-10T12:21:46;9.23;;;5.97;;
1691;SDS011;843;52.054;8.552;2023-05-10T12:24:13;6.67;;;5.03;;
1691;SDS011;843;52.054;8.552;2023-05-10T12:26:41;8.33;;;5.20;;
1691;SDS011;843;52.054;8.552;2023-05-10T12:29:11;9.37;;;6.90;;
1691;SDS011;843;52.054;8.552;2023-05-10T12:31:48;8.70;;;6.90;;
1691;SDS011;843;52.054;8.552;2023-05-10T12:34:23;7.47;;;5.77;;
1691;SDS011;843;52.054;8.552;2023-05-10T12:36:50;9.80;;;6.97;;
1691;SDS011;843;52.054;8.552;2023-05-10T12:39:17;9.10;;;6.93;;
1691;SDS011;843;52.054;8.552;2023-05-10T12:41:44;8.63;;;7.70;;
1691;SDS011;843;52.054;8.552;2023-05-10T12:44:11;9.40;;;7.57;;
1691;SDS011;843;52.054;8.552;2023-05-10T12:46:37;10.97;;;8.30;;
1691;SDS011;843;52.054;8.552;2023-05-10T12:49:04;15.00;;;8.83;;
1691;SDS011;843;52.054;8.552;2023-05-10T12:51:32;10.83;;;9.73;;
1691;SDS011;843;52.054;8.552;2023-05-10T12:53:58;14.63;;;10.30;;
1691;SDS011;843;52.054;8.552;2023-05-10T12:56:25;11.23;;;8.60;;
1691;SDS011;843;52.054;8.552;2023-05-10T12:58:51;12.83;;;9.93;;
1691;SDS011;843;52.054;8.552;2023-05-10T13:01:18;11.83;;;10.00;;
1691;SDS011;843;52.054;8.552;2023-05-10T13:03:45;16.80;;;9.83;;
1691;SDS011;843;52.054;8.552;2023-05-10T13:06:11;15.97;;;10.37;;
1691;SDS011;843;52.054;8.552;2023-05-10T13:08:39;9.83;;;8.53;;
1691;SDS011;843;52.054;8.552;2023-05-10T13:11:06;12.00;;;9.67;;
1691;SDS011;843;52.054;8.552;2023-05-10T13:13:33;11.33;;;8.20;;
1691;SDS011;843;52.054;8.552;2023-05-10T13:15:59;11.77;;;9.53;;
1691;SDS011;843;52.054;8.552;2023-05-10T13:18:26;8.60;;;7.50;;
1691;SDS011;843;52.054;8.552;2023-05-10T13:20:53;9.80;;;8.67;;
1691;SDS011;843;52.054;8.552;2023-05-10T13:23:20;10.27;;;8.67;;
1691;SDS011;843;52.054;8.552;2023-05-10T13:25:49;11.37;;;9.00;;
1691;SDS011;843;52.054;8.552;2023-05-10T13:28:15;15.83;;;10.57;;
1691;SDS011;843;52.054;8.552;2023-05-10T13:30:42;11.93;;;9.17;;
1691;SDS011;843;52.054;8.552;2023-05-10T13:33:08;14.87;;;10.10;;
1691;SDS011;843;52.054;8.552;2023-05-10T13:35:35;15.83;;;9.80;;
1691;SDS011;843;52.054;8.552;2023-05-10T13:38:01;12.10;;;10.80;;
1691;SDS011;843;52.054;8.552;2023-05-10T13:40:28;12.23;;;10.80;;
1691;SDS011;843;52.054;8.552;2023-05-10T13:42:55;12.67;;;10.03;;
1691;SDS011;843;52.054;8.552;2023-05-10T13:45:22;11.73;;;9.50;;
1691;SDS011;843;52.054;8.552;2023-05-10T13:47:48;17.40;;;11.07;;
1691;SDS011;843;52.054;8.552;2023-05-10T13:50:15;12.70;;;10.10;;
1691;SDS011;843;52.054;8.552;2023-05-10T13:52:42;14.10;;;10.50;;
1691;SDS011;843;52.054;8.552;2023-05-10T13:55:08;14.90;;;11.70;;
1691;SDS011;843;52.054;8.552;2023-05-10T13:57:37;22.00;;;13.23;;
1691;SDS011;843;52.054;8.552;2023-05-10T14:00:06;16.27;;;13.60;;
1691;SDS011;843;52.054;8.552;2023-05-10T14:02:32;18.23;;;13.60;;
1691;SDS011;843;52.054;8.552;2023-05-10T14:04:59;20.00;;;13.10;;
1691;SDS011;843;52.054;8.552;2023-05-10T14:07:26;16.77;;;13.20;;
1691;SDS011;843;52.054;8.552;2023-05-10T14:09:52;18.27;;;13.90;;
1691;SDS011;843;52.054;8.552;2023-05-10T14:12:19;15.50;;;12.40;;
1691;SDS011;843;52.054;8.552;2023-05-10T14:14:46;15.97;;;11.90;;
1691;SDS011;843;52.054;8.552;2023-05-10T14:17:15;18.07;;;12.83;;
1691;SDS011;843;52.054;8.552;2023-05-10T14:19:43;22.07;;;12.80;;
1691;SDS011;843;52.054;8.552;2023-05-10T14:22:09;16.97;;;12.87;;
1691;SDS011;843;52.054;8.552;2023-05-10T14:24:35;18.07;;;12.03;;
1691;SDS011;843;52.054;8.552;2023-05-10T14:27:02;15.37;;;12.23;;
1691;SDS011;843;52.054;8.552;2023-05-10T14:29:29;19.93;;;13.63;;
1691;SDS011;843;52.054;8.552;2023-05-10T14:31:55;15.30;;;12.53;;
1691;SDS011;843;52.054;8.552;2023-05-10T14:34:23;19.60;;;13.83;;
1691;SDS011;843;52.054;8.552;2023-05-10T14:36:49;22.47;;;15.97;;
1691;SDS011;843;52.054;8.552;2023-05-10T14:39:16;22.07;;;15.33;;
1691;SDS011;843;52.054;8.552;2023-05-10T14:41:43;20.80;;;14.63;;
1691;SDS011;843;52.054;8.552;2023-05-10T14:44:10;21.30;;;14.90;;
1691;SDS011;843;52.054;8.552;2023-05-10T14:46:37;20.13;;;15.40;;
1691;SDS011;843;52.054;8.552;2023-05-10T14:49:04;23.50;;;17.17;;
1691;SDS011;843;52.054;8.552;2023-05-10T14:51:32;22.90;;;16.60;;
1691;SDS011;843;52.054;8.552;2023-05-10T14:53:59;21.50;;;16.83;;
1691;SDS011;843;52.054;8.552;2023-05-10T14:56:25;22.20;;;16.87;;
1691;SDS011;843;52.054;8.552;2023-05-10T14:58:52;18.80;;;14.87;;
1691;SDS011;843;52.054;8.552;2023-05-10T15:01:19;22.20;;;16.37;;
1691;SDS011;843;52.054;8.552;2023-05-10T15:03:46;20.97;;;15.73;;
1691;SDS011;843;52.054;8.552;2023-05-10T15:06:13;18.60;;;15.00;;
1691;SDS011;843;52.054;8.552;2023-05-10T15:08:41;22.20;;;15.30;;
1691;SDS011;843;52.054;8.552;2023-05-10T15:11:08;22.33;;;14.83;;
1691;SDS011;843;52.054;8.552;2023-05-10T15:13:34;19.10;;;14.20;;
1691;SDS011;843;52.054;8.552;2023-05-10T15:16:01;16.60;;;13.30;;
1691;SDS011;843;52.054;8.552;2023-05-10T15:18:28;19.50;;;14.67;;
1691;SDS011;843;52.054;8.552;2023-05-10T15:20:54;19.60;;;13.80;;
1691;SDS011;843;52.054;8.552;2023-05-10T15:23:21;19.27;;;14.10;;
1691;SDS011;843;52.054;8.552;2023-05-10T15:25:49;24.97;;;14.87;;
1691;SDS011;843;52.054;8.552;2023-05-10T15:28:20;19.87;;;15.40;;
1691;SDS011;843;52.054;8.552;2023-05-10T15:30:46;18.93;;;14.40;;
1691;SDS011;843;52.054;8.552;2023-05-10T15:33:13;22.13;;;14.87;;